MHD weather

Mashhad International Airport
Mashhad, Razavi Khorasan Province, Iran

Public forecast

Using degrees Celsius for public forecast. Weather courtesy of forecast.io.

Current aviation weather report (METAR) for Mashhad International Airport

Retrieved 2020/07/13 17:30 UTC (25 minutes ago):

OIMM 131730Z 00000KT 9999 FEW040 SCT100 28/08 Q1007 A2974

Aviation forecast (TAF) for Mashhad International Airport

Retrieved 2020/07/13 12:48 UTC (5 hours ago):

TAF OIMM 131100Z 1312/1418 30008KT 8000 FEW040 SCT120 TEMPO 1312/1318 05018KT FEW030CB SCT035 BKN100 TEMPO 1409/1418 05018KT FEW030CB SCT035 BKN100